Time;durP1;ratioP1;P1;durP2;ratioP2;P2;SDS_P1;SDS_P2;PMS_P1;PMS_P2;Temp;Humidity;BMP_temperature;BMP_pressure;BME280_temperature;BME280_humidity;BME280_pressure;Samples;Min_cycle;Max_cycle;Signal;HPM_P1;HPM_P2
2022/06/30 04:03:57;;;;;;;8.40;6.80;;;17.40;99.90;;;;;;5775748;22;20482;-70
2022/06/30 04:06:23;;;;;;;6.73;6.13;;;17.40;99.90;;;;;;5033458;28;20396;-72
2022/06/30 04:08:49;;;;;;;7.00;6.07;;;17.50;99.90;;;;;;5032572;28;20174;-72
2022/06/30 04:11:14;;;;;;;8.00;7.10;;;17.50;99.90;;;;;;5032945;28;20502;-71
2022/06/30 04:13:40;;;;;;;8.40;7.50;;;17.60;99.90;;;;;;5032525;28;20436;-72
2022/06/30 04:16:05;;;;;;;7.30;6.40;;;17.70;99.90;;;;;;5033453;28;20167;-72
2022/06/30 04:18:31;;;;;;;10.33;6.60;;;17.80;99.90;;;;;;5033261;28;20250;-71
2022/06/30 04:20:57;;;;;;;9.50;7.43;;;18.20;99.90;;;;;;5033285;28;20168;-70
2022/06/30 04:23:22;;;;;;;6.03;5.50;;;18.60;99.90;;;;;;5014016;28;20237;-71
2022/06/30 04:25:48;;;;;;;6.03;5.57;;;18.90;99.90;;;;;;5033528;28;20177;-71
2022/06/30 04:28:13;;;;;;;6.07;5.53;;;19.10;99.90;;;;;;5032758;28;20272;-73
2022/06/30 04:33:23;;;;;;;6.27;5.77;;;19.40;99.90;;;;;;5031870;28;20219;-73
2022/06/30 04:35:49;;;;;;;5.90;5.40;;;19.50;99.90;;;;;;5033033;28;20454;-73
2022/06/30 04:38:14;;;;;;;6.23;5.63;;;19.50;99.90;;;;;;5032511;28;20578;-73
2022/06/30 04:43:24;;;;;;;6.53;5.93;;;19.70;99.90;;;;;;5032746;28;20256;-72
2022/06/30 04:45:50;;;;;;;8.27;6.43;;;19.80;99.90;;;;;;5032992;28;20910;-72
2022/06/30 04:48:15;;;;;;;7.27;6.60;;;19.90;99.90;;;;;;5032894;28;20182;-73
2022/06/30 04:50:42;;;;;;;6.97;6.30;;;20.00;99.90;;;;;;5032795;28;20173;-69
2022/06/30 04:53:08;;;;;;;6.57;5.80;;;20.10;99.90;;;;;;5014574;28;20201;-71
2022/06/30 04:55:33;;;;;;;5.90;5.30;;;20.20;99.90;;;;;;5032611;28;20783;-70
2022/06/30 04:57:59;;;;;;;5.30;4.93;;;20.30;99.90;;;;;;5032402;28;20188;-72
2022/06/30 05:00:25;;;;;;;7.87;6.07;;;20.30;99.90;;;;;;5032970;28;20608;-70
2022/06/30 05:02:50;;;;;;;5.87;5.37;;;20.40;99.90;;;;;;5032665;28;20205;-70
2022/06/30 05:05:16;;;;;;;6.47;5.87;;;20.40;99.90;;;;;;5032709;28;20220;-72
2022/06/30 05:07:42;;;;;;;6.30;5.70;;;20.40;99.90;;;;;;5032342;28;20209;-71
2022/06/30 05:10:07;;;;;;;6.27;5.50;;;20.50;99.90;;;;;;5032302;28;20635;-71
2022/06/30 05:12:33;;;;;;;8.03;5.80;;;20.60;99.90;;;;;;5032325;28;20205;-66
2022/06/30 05:14:59;;;;;;;7.50;6.77;;;20.60;99.90;;;;;;5033001;28;20194;-67
2022/06/30 05:17:25;;;;;;;10.90;6.43;;;20.70;99.90;;;;;;5032507;28;20178;-67
2022/06/30 05:19:50;;;;;;;6.63;5.30;;;20.80;99.90;;;;;;5032662;28;20544;-67
2022/06/30 05:22:16;;;;;;;6.20;5.67;;;21.20;99.90;;;;;;5032180;28;20383;-66
2022/06/30 05:38:26;;;;;;;7.23;6.10;;;21.50;99.90;;;;;;5078895;27;20296;-66
2022/06/30 05:40:52;;;;;;;6.43;5.83;;;21.90;99.90;;;;;;5066933;28;20915;-67
2022/06/30 05:43:18;;;;;;;6.47;5.40;;;21.90;99.90;;;;;;5066611;28;20259;-67
2022/06/30 05:45:50;;;;;;;6.80;6.27;;;21.90;99.90;;;;;;5068965;27;20344;-67
2022/06/30 05:48:16;;;;;;;5.23;4.83;;;22.00;99.90;;;;;;5066330;28;20814;-67
2022/06/30 05:50:42;;;;;;;5.93;5.40;;;22.00;99.90;;;;;;5066330;28;20499;-65
2022/06/30 05:53:08;;;;;;;5.60;5.20;;;22.10;99.90;;;;;;5066173;28;20949;-67
2022/06/30 05:55:33;;;;;;;6.20;5.60;;;22.20;99.90;;;;;;5082964;27;20654;-68
2022/06/30 05:58:01;;;;;;;6.37;5.87;;;22.30;99.90;;;;;;5065165;27;20678;-72
2022/06/30 06:00:29;;;;;;;6.37;5.80;;;22.50;99.90;;;;;;5066069;28;20197;-69
2022/06/30 06:02:55;;;;;;;6.70;6.20;;;22.50;99.90;;;;;;5065768;28;20454;-67
2022/06/30 06:05:22;;;;;;;6.60;6.00;;;22.60;99.90;;;;;;5067865;27;20434;-65
2022/06/30 06:07:48;;;;;;;6.23;5.70;;;22.60;99.90;;;;;;5065769;27;20478;-66
2022/06/30 06:10:14;;;;;;;6.23;5.73;;;22.60;99.90;;;;;;5066381;27;20445;-68
2022/06/30 06:12:43;;;;;;;6.03;5.33;;;22.70;99.90;;;;;;5066346;27;20391;-67
2022/06/30 06:15:12;;;;;;;6.50;5.67;;;22.70;99.90;;;;;;5050235;27;20479;-68
2022/06/30 06:17:43;;;;;;;6.90;6.30;;;22.80;99.90;;;;;;5065228;27;20969;-68
2022/06/30 06:20:10;;;;;;;7.10;6.40;;;22.80;99.90;;;;;;5062248;27;20390;-66
2022/06/30 06:22:36;;;;;;;5.80;5.30;;;22.90;99.90;;;;;;5065979;28;20776;-67
2022/06/30 06:25:01;;;;;;;4.83;4.53;;;22.90;99.90;;;;;;5067938;27;20508;-69
2022/06/30 06:27:27;;;;;;;7.30;6.10;;;23.00;99.90;;;;;;5065641;28;20302;-77
2022/06/30 06:29:52;;;;;;;6.33;5.83;;;23.00;99.90;;;;;;5048077;28;20284;-70
2022/06/30 06:32:18;;;;;;;7.30;6.03;;;23.10;99.90;;;;;;5061553;28;20177;-67
2022/06/30 06:34:43;;;;;;;6.17;5.60;;;23.10;99.90;;;;;;5067630;27;20196;-67
2022/06/30 06:37:09;;;;;;;6.63;5.87;;;23.20;99.90;;;;;;5065390;27;20209;-68
2022/06/30 06:39:35;;;;;;;7.70;6.63;;;23.20;99.90;;;;;;5051659;28;20225;-68
2022/06/30 06:42:00;;;;;;;6.30;5.80;;;23.30;99.90;;;;;;5059036;27;20180;-68
2022/06/30 06:44:26;;;;;;;8.07;5.60;;;23.40;99.90;;;;;;5065369;27;20177;-70
2022/06/30 06:46:52;;;;;;;8.23;4.90;;;23.40;99.90;;;;;;5077852;27;20180;-66
2022/06/30 06:49:17;;;;;;;6.83;6.10;;;23.40;99.90;;;;;;5065292;27;20216;-68
2022/06/30 06:51:43;;;;;;;6.40;5.90;;;23.50;99.90;;;;;;5065643;27;20372;-67
2022/06/30 06:54:08;;;;;;;6.23;5.67;;;23.50;99.90;;;;;;5065593;27;20169;-67
2022/06/30 06:56:34;;;;;;;5.80;5.20;;;23.70;99.90;;;;;;5067505;27;20383;-67
2022/06/30 06:59:00;;;;;;;5.80;5.20;;;24.00;99.90;;;;;;5064546;27;20212;-66
2022/06/30 07:01:25;;;;;;;5.93;5.37;;;24.20;99.90;;;;;;5065068;27;20204;-67
2022/06/30 07:03:51;;;;;;;6.63;5.80;;;24.40;99.90;;;;;;5065343;27;20173;-66
2022/06/30 07:06:17;;;;;;;7.47;6.43;;;24.40;99.90;;;;;;5056796;27;20178;-66
2022/06/30 07:08:43;;;;;;;4.80;4.50;;;24.40;99.90;;;;;;5064984;28;20208;-67
2022/06/30 07:11:09;;;;;;;5.63;5.13;;;24.50;99.90;;;;;;5065560;28;20200;-67
2022/06/30 07:13:35;;;;;;;5.83;5.33;;;24.60;99.90;;;;;;5065129;27;20169;-68
2022/06/30 07:16:02;;;;;;;4.73;4.33;;;24.80;99.90;;;;;;5067132;27;20692;-69
2022/06/30 07:18:28;;;;;;;5.90;5.40;;;24.90;99.90;;;;;;5064421;27;20428;-69
2022/06/30 07:20:54;;;;;;;5.90;5.40;;;25.00;99.90;;;;;;5052575;27;20463;-70
2022/06/30 07:23:19;;;;;;;5.13;4.73;;;25.10;99.90;;;;;;5065041;27;20611;-70
2022/06/30 07:25:45;;;;;;;5.70;5.30;;;25.20;99.90;;;;;;5065266;27;20214;-69
2022/06/30 07:28:11;;;;;;;5.90;5.50;;;25.60;99.90;;;;;;5064096;27;20311;-71
2022/06/30 07:30:36;;;;;;;3.97;3.67;;;26.00;99.90;;;;;;5065122;27;20170;-71
2022/06/30 07:33:02;;;;;;;5.93;5.43;;;26.40;99.90;;;;;;5064605;27;20177;-72
2022/06/30 07:35:28;;;;;;;5.60;5.10;;;27.00;99.90;;;;;;5052180;27;20192;-70
2022/06/30 07:37:54;;;;;;;4.60;4.30;;;27.50;99.90;;;;;;5064714;28;20317;-69
2022/06/30 07:40:19;;;;;;;5.53;5.10;;;28.10;99.50;;;;;;5108328;27;20162;-69
2022/06/30 07:42:45;;;;;;;5.30;4.50;;;28.90;99.40;;;;;;5170292;27;20197;-70
2022/06/30 07:45:11;;;;;;;4.23;3.93;;;30.10;97.70;;;;;;5119304;27;20272;-69
2022/06/30 07:47:42;;;;;;;4.63;4.30;;;31.20;95.50;;;;;;5064606;27;20178;-70
2022/06/30 07:50:09;;;;;;;3.83;3.63;;;32.50;92.80;;;;;;5131887;27;20246;-72
2022/06/30 07:52:35;;;;;;;4.70;4.40;;;33.80;89.50;;;;;;5123489;27;20416;-70
2022/06/30 07:55:02;;;;;;;4.67;4.27;;;34.90;84.10;;;;;;5064719;28;20469;-71
2022/06/30 07:57:28;;;;;;;6.10;4.70;;;35.70;78.40;;;;;;5064642;28;20221;-73
2022/06/30 07:59:54;;;;;;;4.57;4.27;;;36.10;76.80;;;;;;5065252;27;20526;-71
2022/06/30 08:02:20;;;;;;;4.60;4.20;;;36.70;76.90;;;;;;5064323;27;20412;-71
2022/06/30 08:04:45;;;;;;;4.07;3.87;;;37.30;72.90;;;;;;5064794;28;20181;-72
2022/06/30 08:07:11;;;;;;;4.03;3.83;;;37.80;67.70;;;;;;5063585;27;20315;-70
2022/06/30 08:09:37;;;;;;;3.97;3.77;;;38.00;67.60;;;;;;5065242;27;20425;-73
2022/06/30 08:12:03;;;;;;;3.73;3.53;;;38.40;66.70;;;;;;5064433;27;20177;-70
2022/06/30 08:14:29;;;;;;;5.73;4.00;;;39.00;63.40;;;;;;5096331;27;20166;-73
2022/06/30 08:16:55;;;;;;;3.83;3.50;;;39.40;61.60;;;;;;5169387;27;20574;-72
2022/06/30 08:19:21;;;;;;;4.27;4.07;;;39.40;59.60;;;;;;5139072;27;20439;-72
2022/06/30 08:21:47;;;;;;;4.50;4.30;;;39.30;60.20;;;;;;5047264;27;20650;-70
2022/06/30 08:24:14;;;;;;;4.20;4.00;;;39.40;59.20;;;;;;5098867;27;20274;-70
2022/06/30 08:26:40;;;;;;;4.80;4.40;;;39.20;60.00;;;;;;5112881;27;20482;-70
2022/06/30 08:29:08;;;;;;;3.80;3.60;;;39.00;59.80;;;;;;5063816;27;20460;-73
2022/06/30 08:31:35;;;;;;;4.23;3.93;;;39.20;59.50;;;;;;5064323;27;20170;-70
2022/06/30 08:34:00;;;;;;;4.77;4.43;;;39.30;59.70;;;;;;5083452;27;20644;-71
2022/06/30 08:36:26;;;;;;;5.30;4.90;;;39.80;58.70;;;;;;5168874;27;20530;-70
2022/06/30 08:38:52;;;;;;;4.13;3.93;;;40.20;58.10;;;;;;5168812;27;20260;-70
2022/06/30 08:44:02;;;;;;;4.20;3.93;;;41.30;56.80;;;;;;5064823;27;20188;-70
2022/06/30 08:46:28;;;;;;;4.60;4.30;;;41.70;55.20;;;;;;5064724;27;20633;-74
2022/06/30 08:48:54;;;;;;;4.73;4.43;;;41.50;54.60;;;;;;5063646;27;20432;-71
2022/06/30 08:51:21;;;;;;;4.63;4.33;;;41.80;54.70;;;;;;5046579;28;20193;-73
2022/06/30 08:53:51;;;;;;;3.97;3.77;;;42.10;53.50;;;;;;5064441;27;20412;-68
2022/06/30 08:56:18;;;;;;;4.40;4.10;;;41.70;52.60;;;;;;5047082;27;20487;-66
2022/06/30 08:58:45;;;;;;;4.70;4.40;;;41.60;53.20;;;;;;5063794;27;20420;-67
2022/06/30 09:01:11;;;;;;;5.20;4.90;;;41.60;52.70;;;;;;5064227;27;20431;-70
2022/06/30 09:03:38;;;;;;;4.87;4.57;;;41.80;53.10;;;;;;5063525;27;20688;-67
2022/06/30 09:06:05;;;;;;;4.33;4.13;;;42.20;53.20;;;;;;5163187;27;20184;-71
2022/06/30 09:08:31;;;;;;;4.80;4.50;;;42.40;52.20;;;;;;5168708;27;20666;-65
2022/06/30 09:10:57;;;;;;;4.40;4.20;;;42.50;52.10;;;;;;5168980;27;20418;-66
2022/06/30 09:13:24;;;;;;;4.47;4.17;;;42.50;51.60;;;;;;5130425;27;20419;-66
2022/06/30 09:15:50;;;;;;;4.90;4.70;;;42.70;50.70;;;;;;5095720;27;20197;-66
2022/06/30 09:18:26;;;;;;;4.40;4.20;;;42.70;50.30;;;;;;5062998;27;20449;-67
2022/06/30 09:20:52;;;;;;;4.53;4.33;;;42.80;50.50;;;;;;5063697;28;20417;-67
2022/06/30 09:23:28;;;;;;;5.60;4.33;;;42.50;50.10;;;;;;5063149;27;20471;-66
2022/06/30 09:26:01;;;;;;;4.60;4.40;;;42.10;50.00;;;;;;5115562;27;20420;-67
2022/06/30 09:28:54;;;;;;;4.30;4.10;;;40.70;50.40;;;;;;5063408;28;20420;-65
2022/06/30 09:31:35;;;;;;;4.00;3.70;;;39.90;51.10;;;;;;5063793;28;20488;-66
2022/06/30 09:34:21;;;;;;;4.67;4.37;;;39.60;51.60;;;;;;5069944;27;20416;-66
2022/06/30 09:36:48;;;;;;;4.60;4.07;;;38.80;52.10;;;;;;5093931;27;20680;-65
2022/06/30 09:39:16;;;;;;;5.00;4.60;;;39.00;53.10;;;;;;5063220;28;20447;-66
2022/06/30 09:41:43;;;;;;;6.53;5.93;;;39.40;54.10;;;;;;5063213;28;20486;-67
2022/06/30 09:44:20;;;;;;;4.87;4.53;;;39.40;53.80;;;;;;5065315;27;20400;-65
2022/06/30 09:47:02;;;;;;;4.10;3.90;;;39.40;53.90;;;;;;5057237;28;20676;-66
2022/06/30 09:49:42;;;;;;;4.03;3.83;;;39.50;52.70;;;;;;5062901;27;20707;-66
2022/06/30 09:52:26;;;;;;;3.80;3.50;;;39.60;52.70;;;;;;5063560;27;20408;-65
2022/06/30 09:54:53;;;;;;;4.57;4.37;;;39.40;53.10;;;;;;5086427;27;20423;-66
2022/06/30 09:57:19;;;;;;;4.60;4.33;;;39.20;52.90;;;;;;5093869;27;20470;-66
2022/06/30 09:59:44;;;;;;;4.00;3.70;;;38.70;53.00;;;;;;5062155;27;20448;-66
2022/06/30 10:02:11;;;;;;;4.60;4.30;;;38.80;53.30;;;;;;5063107;27;20199;-66
2022/06/30 10:04:56;;;;;;;5.57;5.20;;;39.10;53.40;;;;;;5064079;27;20178;-70
2022/06/30 10:07:22;;;;;;;4.20;4.00;;;39.80;52.80;;;;;;5062859;27;20484;-69
2022/06/30 10:09:50;;;;;;;4.30;4.10;;;40.40;51.80;;;;;;5063345;27;20600;-71
2022/06/30 10:12:24;;;;;;;5.23;4.07;;;40.30;51.80;;;;;;5063139;27;20448;-71
2022/06/30 10:14:51;;;;;;;3.90;3.70;;;40.80;51.10;;;;;;5068139;27;20648;-73
2022/06/30 10:17:30;;;;;;;4.40;4.07;;;41.20;49.40;;;;;;5066178;27;20478;-70
2022/06/30 10:19:56;;;;;;;4.97;4.73;;;41.60;49.60;;;;;;5066432;27;20423;-69
2022/06/30 10:22:24;;;;;;;4.23;4.03;;;42.00;49.10;;;;;;5066449;27;20506;-74
2022/06/30 10:24:53;;;;;;;4.97;4.67;;;42.70;49.00;;;;;;5154473;27;20635;-73
2022/06/30 10:27:21;;;;;;;4.30;4.00;;;43.00;48.20;;;;;;5153619;27;20454;-70
2022/06/30 10:29:52;;;;;;;4.30;4.00;;;43.10;47.50;;;;;;5153748;27;20435;-71
2022/06/30 10:33:02;;;;;;;4.57;4.27;;;43.00;46.80;;;;;;5172012;27;20425;-71
2022/06/30 10:35:33;;;;;;;4.40;4.20;;;42.70;47.20;;;;;;5013160;28;20424;-69
2022/06/30 10:38:10;;;;;;;4.20;4.00;;;41.90;47.30;;;;;;5045811;28;20516;-73
2022/06/30 10:40:59;;;;;;;4.17;3.87;;;41.00;48.10;;;;;;5029146;28;20420;-69
2022/06/30 10:43:25;;;;;;;4.30;4.00;;;40.60;48.90;;;;;;5053067;27;20703;-68
2022/06/30 10:46:01;;;;;;;4.27;4.00;;;40.20;49.00;;;;;;5066239;27;20700;-72
2022/06/30 10:48:48;;;;;;;4.60;4.23;;;40.00;49.10;;;;;;5065734;27;20534;-70
2022/06/30 10:51:14;;;;;;;4.53;3.83;;;40.10;49.50;;;;;;5066027;27;20442;-73
2022/06/30 10:53:40;;;;;;;4.20;3.50;;;39.80;49.30;;;;;;5095186;27;20411;-70
2022/06/30 10:56:06;;;;;;;4.87;3.80;;;39.50;49.90;;;;;;5171450;27;20225;-73
2022/06/30 10:58:32;;;;;;;4.03;3.83;;;39.10;49.60;;;;;;5171110;27;20182;-71
2022/06/30 11:01:00;;;;;;;4.60;4.30;;;38.70;50.40;;;;;;5171417;27;20181;-73
2022/06/30 11:03:35;;;;;;;4.57;4.37;;;38.60;50.50;;;;;;5153264;27;20173;-69
2022/06/30 11:06:05;;;;;;;4.30;3.97;;;38.70;50.80;;;;;;5065853;27;20525;-71
2022/06/30 11:08:38;;;;;;;4.10;3.80;;;38.60;50.00;;;;;;5028405;28;20700;-69
2022/06/30 11:11:23;;;;;;;3.90;3.70;;;38.30;50.40;;;;;;5045913;28;20410;-70
2022/06/30 11:13:49;;;;;;;4.90;4.40;;;38.20;50.50;;;;;;5063493;27;20438;-71
2022/06/30 11:16:19;;;;;;;4.57;4.27;;;38.00;51.30;;;;;;5171035;27;20562;-74
2022/06/30 11:18:46;;;;;;;4.80;4.50;;;37.40;51.60;;;;;;5170607;27;20457;-71
2022/06/30 11:21:12;;;;;;;4.03;3.83;;;36.40;52.90;;;;;;5171032;27;20392;-73
2022/06/30 11:23:49;;;;;;;4.37;4.07;;;35.50;53.50;;;;;;5131301;27;21339;-72
2022/06/30 11:29:03;;;;;;;5.00;3.73;;;34.20;55.30;;;;;;5065123;27;20524;-72
2022/06/30 11:31:39;;;;;;;5.23;4.83;;;33.60;56.90;;;;;;5065550;27;20423;-74
2022/06/30 11:34:09;;;;;;;4.23;3.90;;;33.00;57.30;;;;;;5071155;27;20503;-71
2022/06/30 11:36:37;;;;;;;5.10;4.40;;;32.50;58.00;;;;;;5065163;27;20479;-70
2022/06/30 11:39:11;;;;;;;4.57;4.23;;;32.10;59.10;;;;;;5064949;27;20456;-68
2022/06/30 11:44:38;;;;;;;4.63;4.23;;;31.50;61.00;;;;;;5106255;27;20389;-68
2022/06/30 11:47:17;;;;;;;4.20;3.90;;;31.30;61.90;;;;;;5168785;27;20428;-68
2022/06/30 11:49:48;;;;;;;6.50;4.50;;;31.30;63.30;;;;;;5170021;27;20389;-71
2022/06/30 11:52:24;;;;;;;4.87;3.97;;;31.30;65.10;;;;;;5169784;27;20370;-70
2022/06/30 11:55:00;;;;;;;4.80;4.40;;;31.30;63.70;;;;;;5116662;27;20405;-69
2022/06/30 11:57:34;;;;;;;4.43;4.13;;;31.40;62.50;;;;;;5064693;27;20566;-70
2022/06/30 12:00:02;;;;;;;4.17;3.87;;;31.20;61.70;;;;;;5065138;27;20371;-69
2022/06/30 12:02:29;;;;;;;5.80;4.47;;;31.20;62.80;;;;;;5064912;27;20408;-70
2022/06/30 12:04:58;;;;;;;4.27;3.90;;;31.10;63.30;;;;;;5116666;27;20457;-70
2022/06/30 12:07:25;;;;;;;4.23;3.83;;;31.10;62.40;;;;;;5169844;27;20370;-71
2022/06/30 12:09:52;;;;;;;3.80;3.50;;;31.00;62.90;;;;;;5169929;27;20409;-69
2022/06/30 12:12:23;;;;;;;4.73;4.23;;;31.10;62.50;;;;;;5170019;27;20394;-70
2022/06/30 12:14:56;;;;;;;4.30;4.00;;;31.20;62.80;;;;;;5125555;27;20404;-69
2022/06/30 12:17:22;;;;;;;4.83;4.50;;;31.20;63.50;;;;;;5047150;28;20441;-68
2022/06/30 12:19:50;;;;;;;4.50;4.20;;;31.30;63.50;;;;;;5110264;27;20484;-69
2022/06/30 12:22:16;;;;;;;4.23;3.83;;;31.30;61.80;;;;;;5169769;27;20371;-71
2022/06/30 12:24:46;;;;;;;3.90;3.70;;;31.30;62.60;;;;;;5169817;27;20367;-72
2022/06/30 12:27:28;;;;;;;3.83;3.53;;;31.30;61.10;;;;;;5169525;27;20395;-70
2022/06/30 12:30:01;;;;;;;4.50;4.10;;;31.20;62.00;;;;;;5106548;27;20410;-71
2022/06/30 12:32:28;;;;;;;4.53;4.00;;;31.00;62.40;;;;;;5064642;27;20454;-70
2022/06/30 12:35:04;;;;;;;3.80;3.50;;;30.90;66.10;;;;;;5064614;27;20476;-72
2022/06/30 12:37:32;;;;;;;4.40;4.10;;;31.00;63.90;;;;;;5062714;27;20430;-71
2022/06/30 12:40:01;;;;;;;4.40;3.70;;;31.10;63.00;;;;;;5129124;27;20409;-70
2022/06/30 12:42:37;;;;;;;4.47;4.00;;;31.20;63.50;;;;;;5169389;27;20439;-72
2022/06/30 12:45:03;;;;;;;4.63;4.33;;;31.20;62.40;;;;;;5151158;27;20421;-70
2022/06/30 12:47:30;;;;;;;4.30;4.00;;;31.10;64.40;;;;;;5149910;27;20397;-71
2022/06/30 12:49:55;;;;;;;4.90;4.50;;;31.10;63.40;;;;;;5107136;27;20436;-71
2022/06/30 12:52:22;;;;;;;5.23;4.73;;;31.10;63.70;;;;;;5063997;27;20391;-71
2022/06/30 12:54:58;;;;;;;4.70;4.30;;;31.20;63.30;;;;;;5064095;27;20165;-71
2022/06/30 12:57:26;;;;;;;4.20;3.90;;;31.30;64.00;;;;;;5063758;27;20447;-71
2022/06/30 12:59:56;;;;;;;4.23;3.93;;;31.40;63.30;;;;;;5120993;27;20427;-71
2022/06/30 13:02:39;;;;;;;5.80;4.20;;;31.40;63.30;;;;;;5169197;27;20358;-69
2022/06/30 13:05:10;;;;;;;4.43;4.07;;;31.50;61.70;;;;;;5169171;27;20382;-69
2022/06/30 13:07:36;;;;;;;4.73;4.17;;;31.60;60.60;;;;;;5168692;27;20389;-71
2022/06/30 13:10:02;;;;;;;4.43;4.03;;;31.70;59.60;;;;;;5108963;27;20445;-70
2022/06/30 13:12:28;;;;;;;3.80;3.50;;;31.60;60.20;;;;;;5063988;27;20384;-72
2022/06/30 13:14:54;;;;;;;4.00;3.70;;;31.60;60.40;;;;;;5063952;27;20427;-69
2022/06/30 13:17:20;;;;;;;4.23;4.00;;;31.70;59.00;;;;;;5063587;27;20198;-71
2022/06/30 13:19:45;;;;;;;4.00;3.70;;;31.70;59.50;;;;;;5109952;27;20178;-70
2022/06/30 13:22:11;;;;;;;3.93;3.63;;;31.60;59.40;;;;;;5168014;27;20405;-71
2022/06/30 13:24:36;;;;;;;4.37;4.00;;;31.70;59.10;;;;;;5168844;27;20158;-70
2022/06/30 13:27:03;;;;;;;5.60;3.80;;;31.60;59.00;;;;;;5168575;27;20177;-70
2022/06/30 13:29:31;;;;;;;3.80;3.50;;;31.60;59.30;;;;;;5134801;27;20197;-72
2022/06/30 13:31:58;;;;;;;5.13;4.63;;;31.60;59.10;;;;;;5063644;27;20607;-71
2022/06/30 13:34:25;;;;;;;4.40;4.00;;;31.60;59.50;;;;;;5046297;27;20394;-72
2022/06/30 13:36:51;;;;;;;4.77;4.37;;;31.60;59.10;;;;;;5063332;27;20465;-71
2022/06/30 13:39:18;;;;;;;4.47;4.07;;;31.50;59.50;;;;;;5085991;27;20457;-71
2022/06/30 13:41:44;;;;;;;3.77;3.57;;;31.60;59.90;;;;;;5168736;27;20381;-71
2022/06/30 13:44:10;;;;;;;5.10;3.83;;;31.50;60.80;;;;;;5168613;27;20487;-72
2022/06/30 13:46:36;;;;;;;3.43;3.23;;;31.60;61.50;;;;;;5168583;27;20412;-70
2022/06/30 13:49:04;;;;;;;4.10;3.70;;;31.60;61.10;;;;;;5163199;27;20402;-72
2022/06/30 13:51:29;;;;;;;4.00;3.70;;;31.80;60.60;;;;;;5067570;27;20403;-71
2022/06/30 13:53:57;;;;;;;3.53;3.33;;;31.80;60.60;;;;;;5067609;27;20571;-71
2022/06/30 13:56:24;;;;;;;3.50;3.30;;;31.80;60.90;;;;;;5067002;27;20622;-71
2022/06/30 13:58:50;;;;;;;4.50;4.20;;;31.70;59.80;;;;;;5049223;27;20432;-70
2022/06/30 14:01:16;;;;;;;4.93;3.97;;;31.70;59.40;;;;;;5156566;27;20539;-72
2022/06/30 14:03:42;;;;;;;3.60;3.40;;;31.60;59.60;;;;;;5172690;27;20158;-70
2022/06/30 14:06:07;;;;;;;3.63;3.33;;;31.40;60.10;;;;;;5172448;27;20163;-73
2022/06/30 14:08:33;;;;;;;4.47;3.57;;;31.50;59.80;;;;;;5171849;27;20401;-71
2022/06/30 14:11:00;;;;;;;4.20;3.90;;;31.40;60.10;;;;;;5096214;27;20289;-69
2022/06/30 14:13:26;;;;;;;4.70;4.30;;;31.50;61.60;;;;;;5066869;27;20538;-70
2022/06/30 14:15:52;;;;;;;4.47;4.13;;;31.60;61.10;;;;;;5066624;27;20386;-72
2022/06/30 14:18:18;;;;;;;4.20;3.70;;;31.70;60.60;;;;;;5066372;27;20241;-71
2022/06/30 14:20:45;;;;;;;4.37;4.07;;;31.70;60.60;;;;;;5128768;27;20455;-73
2022/06/30 14:23:11;;;;;;;4.30;3.90;;;31.80;60.80;;;;;;5172269;27;20392;-71
2022/06/30 14:25:37;;;;;;;4.70;4.30;;;31.80;61.10;;;;;;5172260;27;20499;-72
2022/06/30 14:28:03;;;;;;;4.30;4.00;;;31.80;59.90;;;;;;5171822;27;20389;-70
2022/06/30 14:30:30;;;;;;;5.33;4.53;;;31.70;59.80;;;;;;5122177;27;20178;-71
2022/06/30 14:32:57;;;;;;;6.03;5.57;;;31.70;60.60;;;;;;5066507;27;20442;-71
2022/06/30 14:35:23;;;;;;;5.07;4.67;;;31.70;61.60;;;;;;5066447;27;20404;-71
2022/06/30 14:37:48;;;;;;;4.60;4.30;;;31.70;62.60;;;;;;5065806;27;20434;-70
2022/06/30 14:40:16;;;;;;;4.63;4.33;;;31.60;62.00;;;;;;5103510;27;20415;-70
2022/06/30 14:42:44;;;;;;;4.10;3.80;;;31.60;63.30;;;;;;5171792;27;20211;-70
2022/06/30 14:45:15;;;;;;;4.10;3.80;;;31.60;64.40;;;;;;5171781;27;20403;-69
2022/06/30 14:47:42;;;;;;;4.33;4.03;;;31.70;63.70;;;;;;5171389;27;20396;-70
2022/06/30 14:50:09;;;;;;;4.70;4.30;;;31.70;63.40;;;;;;5140315;27;20520;-69
2022/06/30 14:52:36;;;;;;;3.80;3.50;;;31.60;63.50;;;;;;5066194;27;20407;-71
2022/06/30 14:55:03;;;;;;;3.90;3.60;;;31.50;63.20;;;;;;5066120;27;20383;-71
2022/06/30 14:57:29;;;;;;;4.37;4.07;;;31.40;63.80;;;;;;5065778;27;20459;-71
2022/06/30 14:59:55;;;;;;;4.43;4.10;;;31.40;64.10;;;;;;5086273;27;20438;-69
2022/06/30 15:02:21;;;;;;;4.57;4.27;;;31.10;63.00;;;;;;5171559;27;20435;-69
2022/06/30 15:04:46;;;;;;;4.30;4.00;;;31.00;62.40;;;;;;5171520;27;20218;-70
2022/06/30 15:07:12;;;;;;;3.93;3.53;;;30.90;62.70;;;;;;5171094;27;20167;-70
2022/06/30 15:09:38;;;;;;;4.60;4.30;;;30.80;62.90;;;;;;5163736;27;20182;-71
2022/06/30 15:12:04;;;;;;;4.03;3.73;;;30.70;63.70;;;;;;5065616;27;20209;-71
2022/06/30 15:14:30;;;;;;;5.00;4.00;;;30.60;64.00;;;;;;5048344;28;20699;-71
2022/06/30 15:16:58;;;;;;;4.87;4.03;;;30.40;64.20;;;;;;5047826;28;20484;-71
2022/06/30 15:19:24;;;;;;;4.70;4.00;;;30.30;64.20;;;;;;5065408;27;20449;-71
2022/06/30 15:24:34;;;;;;;4.40;3.47;;;30.00;65.20;;;;;;5171020;27;20502;-70
2022/06/30 15:27:00;;;;;;;6.50;4.57;;;29.90;66.20;;;;;;5170685;27;20407;-70
2022/06/30 15:29:26;;;;;;;4.60;4.30;;;29.80;67.80;;;;;;5170914;27;20190;-72
2022/06/30 15:31:57;;;;;;;4.50;3.93;;;29.60;68.70;;;;;;5068602;27;20208;-70
2022/06/30 15:34:25;;;;;;;6.90;4.67;;;29.50;70.80;;;;;;5065585;27;20241;-72
2022/06/30 15:36:51;;;;;;;4.43;4.13;;;29.40;71.80;;;;;;5047881;27;20446;-70
2022/06/30 15:39:17;;;;;;;6.23;5.50;;;29.30;72.60;;;;;;5087457;27;20425;-72
2022/06/30 15:41:43;;;;;;;6.27;5.63;;;29.10;73.10;;;;;;5170699;27;20398;-70
2022/06/30 15:44:11;;;;;;;7.70;5.83;;;29.00;73.80;;;;;;5170637;27;20390;-72
2022/06/30 15:46:37;;;;;;;4.40;4.10;;;28.90;74.10;;;;;;5170437;27;20231;-70
2022/06/30 15:49:03;;;;;;;4.50;4.20;;;28.80;74.80;;;;;;5126000;27;20422;-73
2022/06/30 15:51:29;;;;;;;5.43;4.93;;;28.70;75.60;;;;;;5065197;27;20587;-71
2022/06/30 15:53:55;;;;;;;5.10;4.70;;;28.60;77.00;;;;;;5065310;27;20384;-72
2022/06/30 15:56:22;;;;;;;4.70;4.40;;;28.40;79.40;;;;;;5064525;27;20440;-71
2022/06/30 15:58:48;;;;;;;5.23;4.83;;;28.30;81.60;;;;;;5077703;27;20430;-68
2022/06/30 16:01:14;;;;;;;5.53;5.03;;;28.20;83.80;;;;;;5170209;27;20410;-71
2022/06/30 16:03:42;;;;;;;5.50;5.00;;;28.00;86.30;;;;;;5170024;27;20390;-67
2022/06/30 16:06:08;;;;;;;6.20;5.60;;;27.90;87.90;;;;;;5170154;27;20627;-70
2022/06/30 16:08:33;;;;;;;6.13;4.83;;;27.70;90.00;;;;;;5167895;27;20420;-68
2022/06/30 16:10:59;;;;;;;6.00;5.40;;;27.60;91.60;;;;;;5064425;27;20453;-70
2022/06/30 16:13:25;;;;;;;5.73;5.23;;;27.50;92.70;;;;;;5064976;27;20167;-68
2022/06/30 16:15:50;;;;;;;7.20;5.47;;;27.50;93.10;;;;;;5064752;27;20179;-68
2022/06/30 16:18:16;;;;;;;8.20;5.23;;;27.60;93.90;;;;;;5064455;27;20192;-68
2022/06/30 16:20:42;;;;;;;8.83;7.30;;;27.60;94.90;;;;;;5157680;27;20205;-70
2022/06/30 16:23:09;;;;;;;9.63;5.60;;;27.70;95.40;;;;;;5169840;27;20271;-70
2022/06/30 16:25:34;;;;;;;5.40;4.90;;;27.70;95.80;;;;;;5080780;27;20413;-74
2022/06/30 16:28:01;;;;;;;5.10;4.60;;;27.60;96.10;;;;;;5064346;27;20498;-69
2022/06/30 16:30:27;;;;;;;5.23;4.73;;;27.70;96.40;;;;;;5064608;27;20182;-69
2022/06/30 16:32:53;;;;;;;5.53;5.03;;;27.60;96.90;;;;;;5064708;27;20448;-69
2022/06/30 16:35:19;;;;;;;5.50;5.00;;;27.50;98.70;;;;;;5135087;27;20582;-69
2022/06/30 16:37:45;;;;;;;5.80;5.30;;;27.30;99.60;;;;;;5168467;27;20445;-69
2022/06/30 16:40:11;;;;;;;6.30;5.70;;;27.00;99.90;;;;;;5169276;27;20410;-70
2022/06/30 16:42:37;;;;;;;5.73;5.23;;;26.70;99.90;;;;;;5169520;27;20171;-76
2022/06/30 16:45:03;;;;;;;5.93;5.43;;;26.30;99.90;;;;;;5110927;27;20489;-70
2022/06/30 16:47:29;;;;;;;6.50;6.00;;;26.10;99.90;;;;;;5046702;27;20280;-75
2022/06/30 16:49:55;;;;;;;6.13;5.67;;;26.00;99.90;;;;;;5064340;27;20501;-74
2022/06/30 16:52:21;;;;;;;6.07;5.53;;;25.80;99.90;;;;;;5064317;27;20166;-76
2022/06/30 16:54:47;;;;;;;6.53;5.87;;;25.70;99.90;;;;;;5048759;27;20189;-70
2022/06/30 16:57:13;;;;;;;6.87;5.40;;;25.50;99.90;;;;;;5063489;27;20483;-75
2022/06/30 16:59:39;;;;;;;6.73;6.07;;;25.50;99.90;;;;;;5064304;27;20447;-69
2022/06/30 17:02:06;;;;;;;5.80;5.30;;;25.40;99.90;;;;;;5063944;27;20396;-78
2022/06/30 17:04:31;;;;;;;7.40;6.20;;;25.30;99.90;;;;;;5096732;27;20419;-74
2022/06/30 17:06:57;;;;;;;5.67;5.07;;;25.20;99.90;;;;;;5168828;27;20396;-71
2022/06/30 17:09:23;;;;;;;6.73;5.80;;;25.10;99.90;;;;;;5168967;27;20255;-71
2022/06/30 17:11:48;;;;;;;6.10;5.53;;;25.10;99.90;;;;;;5168809;27;20192;-75
2022/06/30 17:14:15;;;;;;;7.57;5.80;;;25.10;99.90;;;;;;5166419;27;20193;-75
2022/06/30 17:16:44;;;;;;;5.80;5.23;;;25.00;99.90;;;;;;5085842;27;20215;-70
2022/06/30 17:19:14;;;;;;;5.73;5.03;;;25.00;99.90;;;;;;5045941;28;20448;-75
2022/06/30 17:21:41;;;;;;;6.13;5.53;;;25.10;99.90;;;;;;5063381;28;20379;-76
2022/06/30 17:24:08;;;;;;;6.23;5.63;;;25.10;99.90;;;;;;5047579;28;20507;-75